Latest Weather Observations for Orbost

IDV60801

Issued at 10:22 pm EST Monday 6 July 2020 (issued every 10 minutes, with the page automatically refreshed every 10 minutes)

About weather observations | Map of weather stations | Latest weather observations for VIC | Other Formats
Station Details ID: 084145 Name: ORBOST Lat: -37.69 Lon: 148.47 Height: 62.65 m
Data from the previous 72 hours. | See also: Recent months at Orbost
Date/Time
EST
Temp
°C
App
Temp
°C
Dew
Point
°C
Rel
Hum
%
Delta-T
°C
Wind Press
QNH
hPa
Press
MSL
hPa
Rain since
9am
mm
Dir  Spd
km/h
Gust
km/h
Spd
kts
Gust
kts
06/10:00pm 11.3 9.0 7.4 77 1.9 W 9 15 5 8 1029.8 1029.9 0.0
06/09:30pm 11.4 9.1 7.5 77 1.9 WNW 9 17 5 9 1029.7 1029.8 0.0
06/09:00pm 11.5 8.8 7.4 76 2.0 WNW 11 19 6 10 1029.7 1029.8 0.0
06/08:30pm 11.5 8.8 7.4 76 2.0 W 11 17 6 9 1029.9 1030.0 0.0
06/08:00pm 11.3 8.9 7.2 76 2.0 W 9 20 5 11 1029.8 1029.9 0.0
06/07:30pm 11.5 9.2 7.6 77 1.9 WNW 9 17 5 9 1029.7 1029.8 0.0
06/07:00pm 11.3 9.0 7.6 78 1.8 WNW 9 13 5 7 1029.4 1029.5 0.0
06/06:30pm 11.4 9.2 7.7 78 1.8 NW 9 13 5 7 1029.2 1029.3 0.0
06/06:00pm 10.9 9.1 7.8 81 1.5 NNW 7 11 4 6 1029.1 1029.2 0.0
06/05:30pm 11.0 9.1 7.7 80 1.6 NW 7 15 4 8 1029.0 1029.1 0.0
06/05:00pm 11.4 9.2 7.7 78 1.8 WNW 9 17 5 9 1028.8 1028.9 0.0
06/04:30pm 11.9 9.2 7.4 74 2.2 WNW 11 17 6 9 1028.7 1028.8 0.0
06/04:00pm 12.2 9.5 7.5 73 2.3 WNW 11 20 6 11 1028.3 1028.4 0.0
06/03:30pm 12.4 10.2 7.7 73 2.3 WNW 9 15 5 8 1028.3 1028.4 0.0
06/03:00pm 12.4 8.9 7.3 71 2.5 W 15 24 8 13 1028.3 1028.4 0.0
06/02:30pm 12.5 9.8 7.4 71 2.5 WNW 11 20 6 11 1028.4 1028.5 0.0
06/02:00pm 12.3 9.2 7.2 71 2.4 W 13 20 7 11 1028.6 1028.7 0.0
06/01:30pm 12.5 9.5 7.6 72 2.4 WNW 13 20 7 11 1028.5 1028.6 0.0
06/01:00pm 12.2 9.6 7.7 74 2.2 WNW 11 22 6 12 1028.7 1028.8 0.0
06/12:30pm 11.8 9.2 7.9 77 1.9 WNW 11 20 6 11 1028.9 1029.0 0.0
06/12:00pm 11.4 8.1 7.9 79 1.7 WNW 15 26 8 14 1029.4 1029.5 0.0
06/11:30am 11.6 8.3 8.1 79 1.7 W 15 24 8 13 1029.7 1029.8 0.0
06/11:00am 11.4 8.5 8.1 80 1.6 WNW 13 20 7 11 1029.9 1030.0 0.0
06/10:30am 11.2 8.3 8.2 82 1.5 W 13 22 7 12 1030.1 1030.2 0.0
06/10:00am 10.4 7.5 8.2 86 1.1 WNW 13 22 7 12 1030.1 1030.2 0.0
06/09:30am 10.2 7.3 8.1 87 1.0 W 13 22 7 12 1030.1 1030.2 0.0
06/09:00am 10.4 7.7 7.5 82 1.4 WNW 11 20 6 11 1029.8 1029.9 0.4
06/08:30am 9.9 7.6 7.3 84 1.2 WNW 9 15 5 8 1029.4 1029.5 0.4
06/08:00am 9.5 7.2 7.3 86 1.0 NW 9 13 5 7 1029.1 1029.2 0.4
06/07:30am 9.2 6.9 7.5 89 0.8 NW 9 13 5 7 1028.9 1029.0 0.4
06/07:00am 8.8 6.5 7.4 91 0.7 NW 9 15 5 8 1028.9 1029.0 0.4
06/06:30am 8.1 6.1 7.0 93 0.5 NW 7 13 4 7 1028.5 1028.6 0.4
06/06:00am 8.5 6.6 7.4 93 0.5 NW 7 11 4 6 1028.2 1028.3 0.4
06/05:30am 8.9 6.3 7.8 93 0.5 WNW 11 15 6 8 1027.7 1027.8 0.4
06/05:00am 9.3 7.3 8.7 96 0.3 WNW 9 15 5 8 1027.7 1027.8 0.4
06/04:30am 9.2 6.4 8.7 97 0.2 WNW 13 19 7 10 1027.5 1027.6 0.4
06/04:00am 9.4 7.4 8.5 94 0.4 WNW 9 15 5 8 1027.5 1027.6 0.0
06/03:30am 9.5 7.4 8.4 93 0.5 WNW 9 17 5 9 1027.5 1027.6 0.0
06/03:00am 9.0 7.0 7.3 89 0.8 WNW 7 13 4 7 1027.3 1027.4 0.0
06/02:30am 10.0 7.8 7.8 86 1.1 W 9 15 5 8 1027.2 1027.3 0.0
06/02:00am 10.3 7.6 7.5 83 1.3 W 11 19 6 10 1027.3 1027.4 0.0
06/01:30am 10.3 7.7 7.7 84 1.3 WNW 11 19 6 10 1027.3 1027.4 0.0
06/01:00am 10.3 6.9 7.5 83 1.3 WNW 15 24 8 13 1027.2 1027.3 0.0
06/12:30am 10.6 7.9 7.5 81 1.5 W 11 17 6 9 1027.2 1027.3 0.0
06/12:00am 10.7 7.6 7.2 79 1.7 WNW 13 22 7 12 1027.2 1027.3 0.0
 
Date/Time
EST
Temp
°C
App
Temp
°C
Dew
Point
°C
Rel
Hum
%
Delta-T
°C
Wind Press
QNH
hPa
Press
MSL
hPa
Rain since
9am
mm
Dir  Spd
km/h
Gust
km/h
Spd
kts
Gust
kts
05/11:30pm 10.9 7.8 7.2 78 1.8 W 13 22 7 12 1027.2 1027.3 0.0
05/11:00pm 11.0 7.9 7.3 78 1.8 WNW 13 20 7 11 1027.2 1027.3 0.0
05/10:30pm 11.2 7.8 7.5 78 1.8 W 15 20 8 11 1026.9 1027.0 0.0
05/10:00pm 11.2 8.5 7.3 77 1.9 W 11 17 6 9 1026.7 1026.8 0.0
05/09:30pm 11.3 8.9 7.2 76 2.0 WNW 9 15 5 8 1026.6 1026.7 0.0
05/09:00pm 11.3 8.6 7.2 76 2.0 W 11 17 6 9 1026.4 1026.5 0.0
05/08:30pm 11.4 8.2 6.9 74 2.1 W 13 20 7 11 1026.2 1026.3 0.0
05/08:00pm 11.5 8.7 7.0 74 2.1 WNW 11 20 6 11 1026.0 1026.1 0.0
05/07:30pm 11.7 9.0 7.2 74 2.2 WNW 11 17 6 9 1025.7 1025.8 0.0
05/07:00pm 11.8 9.1 7.5 75 2.1 WNW 11 17 6 9 1025.2 1025.3 0.0
05/06:30pm 12.0 9.7 7.5 74 2.2 WNW 9 17 5 9 1025.1 1025.2 0.0
05/06:00pm 12.0 9.7 7.5 74 2.2 W 9 15 5 8 1024.7 1024.7 0.0
05/05:30pm 12.1 10.2 7.6 74 2.2 W 7 13 4 7 1024.5 1024.5 0.0
05/05:00pm 12.2 9.5 7.5 73 2.3 W 11 17 6 9 1024.2 1024.2 0.0
05/04:30pm 12.4 10.1 7.5 72 2.4 WNW 9 15 5 8 1024.0 1024.0 0.0
05/04:00pm 12.5 9.5 7.8 73 2.3 W 13 22 7 12 1024.1 1024.1 0.0
05/03:30pm 12.7 9.4 8.0 73 2.3 W 15 28 8 15 1023.9 1023.9 0.0
05/03:00pm 12.5 9.1 7.8 73 2.3 WSW 15 24 8 13 1024.0 1024.0 0.0
05/02:30pm 12.6 9.6 7.7 72 2.4 WSW 13 20 7 11 1023.9 1023.9 0.0
05/02:00pm 12.7 9.2 7.4 70 2.6 W 15 22 8 12 1023.5 1023.6 0.0
05/01:30pm 12.7 9.7 7.8 72 2.4 W 13 20 7 11 1023.4 1023.5 0.0
05/01:00pm 12.6 9.6 7.9 73 2.3 W 13 20 7 11 1023.7 1023.8 0.0
05/12:30pm 12.4 8.6 7.7 73 2.3 W 17 24 9 13 1023.9 1023.9 0.0
05/12:00pm 12.3 8.2 7.8 74 2.2 W 19 30 10 16 1024.1 1024.1 0.0
05/11:30am 12.3 6.8 7.4 72 2.4 W 26 43 14 23 1024.2 1024.2 0.0
05/11:00am 12.3 8.9 7.8 74 2.2 W 15 24 8 13 1024.3 1024.3 0.0
05/10:30am 12.0 9.4 7.9 76 2.0 W 11 19 6 10 1024.2 1024.2 0.0
05/10:00am 11.7 7.6 7.8 77 1.9 W 19 35 10 19 1024.1 1024.1 0.0
05/09:30am 11.5 8.1 7.8 78 1.8 W 15 26 8 14 1023.9 1023.9 0.0
05/09:00am 11.1 7.7 7.6 79 1.7 W 15 24 8 13 1023.6 1023.7 0.0
05/08:30am 10.9 7.4 7.4 79 1.7 W 15 24 8 13 1023.4 1023.5 0.0
05/08:00am 10.5 6.7 7.6 82 1.4 W 17 28 9 15 1022.9 1023.0 0.0
05/07:30am 10.4 7.3 7.3 81 1.5 W 13 24 7 13 1022.7 1022.8 0.0
05/07:00am 10.6 6.7 7.3 80 1.6 W 17 24 9 13 1022.6 1022.7 0.0
05/06:30am 10.5 6.6 7.2 80 1.6 W 17 26 9 14 1022.2 1022.3 0.0
05/06:00am 10.4 7.0 7.5 82 1.4 WNW 15 24 8 13 1021.7 1021.8 0.0
05/05:30am 10.6 6.9 7.8 83 1.4 W 17 26 9 14 1021.4 1021.5 0.0
05/05:00am 10.6 6.5 7.8 83 1.3 W 19 30 10 16 1021.2 1021.3 0.0
05/04:30am 10.7 7.5 8.3 85 1.2 WNW 15 26 8 14 1020.9 1021.0 0.0
05/04:00am 10.8 7.9 8.0 83 1.4 W 13 22 7 12 1021.1 1021.2 0.0
05/03:30am 10.8 7.2 8.2 84 1.3 W 17 24 9 13 1021.1 1021.2 0.0
05/03:00am 10.7 7.0 8.1 84 1.3 W 17 28 9 15 1021.1 1021.2 0.0
05/02:30am 10.4 6.8 8.2 86 1.1 W 17 26 9 14 1021.4 1021.5 0.0
05/02:00am 10.4 6.3 8.7 89 0.8 W 20 32 11 17 1021.5 1021.6 0.0
05/01:30am 10.9 7.2 8.1 83 1.4 W 17 26 9 14 1021.3 1021.4 0.0
05/01:00am 10.9 7.2 8.1 83 1.4 W 17 26 9 14 1021.0 1021.1 0.0
05/12:30am 10.7 7.0 7.9 83 1.4 W 17 26 9 14 1021.0 1021.1 0.0
05/12:00am 10.8 7.5 8.0 83 1.4 W 15 26 8 14 1020.9 1021.0 0.0
 
Date/Time
EST
Temp
°C
App
Temp
°C
Dew
Point
°C
Rel
Hum
%
Delta-T
°C
Wind Press
QNH
hPa
Press
MSL
hPa
Rain since
9am
mm
Dir  Spd
km/h
Gust
km/h
Spd
kts
Gust
kts
04/11:30pm 11.3 7.1 8.3 82 1.5 W 20 35 11 19 1020.6 1020.7 0.0
04/11:00pm 11.3 7.1 8.3 82 1.5 W 20 35 11 19 1020.5 1020.6 0.0
04/10:30pm 11.4 7.4 8.4 82 1.5 W 19 33 10 18 1020.6 1020.7 0.0
04/10:00pm 11.6 7.1 8.5 81 1.5 W 22 35 12 19 1020.6 1020.7 0.0
04/09:30pm 11.9 7.4 8.6 80 1.6 W 22 35 12 19 1020.5 1020.6 0.0
04/09:00pm 11.9 7.4 8.6 80 1.6 W 22 41 12 22 1020.1 1020.2 0.0
04/08:30pm 12.2 7.7 8.5 78 1.8 W 22 35 12 19 1020.1 1020.2 0.0
04/08:00pm 12.3 8.3 8.4 77 1.9 W 19 32 10 17 1020.0 1020.1 0.0
04/07:30pm 12.3 7.7 8.0 75 2.1 W 22 41 12 22 1019.6 1019.7 0.0
04/07:00pm 12.4 8.1 7.9 74 2.2 W 20 39 11 21 1019.5 1019.6 0.0
04/06:30pm 12.4 6.9 7.5 72 2.4 W 26 41 14 22 1019.3 1019.4 0.0
04/06:00pm 12.3 7.9 7.4 72 2.4 W 20 32 11 17 1019.2 1019.3 0.0
04/05:30pm 12.3 8.1 7.4 72 2.4 W 19 30 10 16 1019.0 1019.1 0.0
04/05:00pm 12.4 8.0 7.5 72 2.4 W 20 35 11 19 1018.9 1019.0 0.0
04/04:30pm 12.1 8.4 7.8 75 2.1 W 17 28 9 15 1018.6 1018.7 0.0
04/04:00pm 12.1 8.3 7.6 74 2.2 W 17 26 9 14 1018.6 1018.7 0.0
04/03:30pm 12.2 8.7 7.1 71 2.5 WNW 15 26 8 14 1018.7 1018.8 0.0
04/03:00pm 11.9 8.8 7.2 73 2.3 W 13 22 7 12 1018.7 1018.8 0.0
04/02:30pm 11.3 6.5 7.2 76 2.0 W 22 33 12 18 1018.5 1018.6 0.0
04/02:00pm 11.6 8.4 6.7 72 2.3 WNW 13 22 7 12 1018.6 1018.7 0.0
04/01:30pm 11.8 7.8 6.5 70 2.5 WNW 17 32 9 17 1018.9 1019.0 0.0
04/01:00pm 11.9 7.7 5.5 65 3.0 W 17 32 9 17 1019.2 1019.3 0.0
04/12:30pm 12.2 8.7 5.6 64 3.1 WNW 13 20 7 11 1019.5 1019.6 0.0
04/12:00pm 11.6 7.6 5.0 64 3.0 WNW 15 22 8 12 1020.2 1020.3 0.0
04/11:30am 10.9 7.3 5.0 67 2.7 WNW 13 20 7 11 1020.8 1020.9 0.0
04/11:00am 10.4 6.4 4.8 68 2.5 WNW 15 28 8 15 1021.3 1021.4 0.0
04/10:30am 10.4 6.8 5.2 70 2.4 WNW 13 24 7 13 1021.5 1021.6 0.0
04/10:00am 9.9 5.8 4.5 69 2.4 WNW 15 24 8 13 1021.6 1021.7 0.0
04/09:30am 8.8 5.0 4.0 72 2.1 WNW 13 22 7 12 1021.7 1021.8 0.0
04/09:00am 8.5 4.4 4.1 74 1.9 WNW 15 22 8 12 1021.8 1021.9 6.0
04/08:30am 7.7 3.5 3.9 77 1.6 WNW 15 20 8 11 1021.4 1021.5 6.0
04/08:00am 7.3 3.5 3.7 78 1.5 WNW 13 22 7 12 1021.3 1021.4 6.0
04/07:30am 7.2 3.4 3.8 79 1.5 WNW 13 24 7 13 1021.2 1021.3 6.0
04/07:00am 7.0 3.2 4.1 82 1.2 WNW 13 20 7 11 1021.1 1021.2 6.0
04/06:30am 7.0 3.3 4.3 83 1.2 NW 13 26 7 14 1020.9 1021.0 6.0
04/06:00am 7.2 3.9 4.5 83 1.2 NW 11 17 6 9 1020.5 1020.6 6.0
04/05:30am 7.2 4.0 4.9 85 1.0 WNW 11 19 6 10 1020.2 1020.3 6.0
04/05:00am 7.1 3.5 4.9 86 1.0 WNW 13 20 7 11 1020.3 1020.4 6.0
04/04:30am 6.5 3.2 4.5 87 0.9 WNW 11 17 6 9 1020.3 1020.4 6.0
04/04:00am 6.3 3.0 4.3 87 0.9 WNW 11 17 6 9 1020.1 1020.2 6.0
04/03:30am 6.7 3.0 4.4 85 1.0 NW 13 26 7 14 1020.1 1020.2 6.0
04/03:00am 6.5 3.2 4.3 86 0.9 WNW 11 20 6 11 1020.2 1020.3 6.0
04/02:30am 6.4 3.0 3.9 84 1.1 NW 11 15 6 8 1020.0 1020.1 6.0
04/02:00am 6.6 2.8 4.1 84 1.1 NW 13 19 7 10 1020.0 1020.1 6.0
04/01:30am 6.6 2.8 3.9 83 1.2 NW 13 22 7 12 1019.9 1020.0 6.0
04/01:00am 6.5 3.1 4.0 84 1.1 NW 11 17 6 9 1019.8 1019.9 6.0
04/12:30am 6.7 2.9 4.0 83 1.2 NW 13 24 7 13 1019.6 1019.7 6.0
04/12:00am 6.0 2.5 3.7 85 1.0 NW 11 19 6 10 1019.7 1019.8 6.0
 
Date/Time
EST
Temp
°C
App
Temp
°C
Dew
Point
°C
Rel
Hum
%
Delta-T
°C
Wind Press
QNH
hPa
Press
MSL
hPa
Rain since
9am
mm
Dir  Spd
km/h
Gust
km/h
Spd
kts
Gust
kts
03/11:30pm 5.5 2.4 3.8 89 0.7 NW 9 13 5 7 1019.6 1019.7 6.0
03/11:00pm 5.9 2.6 4.5 91 0.6 NNW 11 19 6 10 1019.4 1019.5 6.0
03/10:30pm 6.0 3.2 5.0 93 0.4 NW 9 17 5 9 1019.7 1019.8 6.0

Other formats

Comma delimited format used in spreadsheet applications
http://www.bom.gov.au/fwo/IDV60801/IDV60801.95918.axf

JavaScript Object Notation format (JSON) in row-major order
http://www.bom.gov.au/fwo/IDV60801/IDV60801.95918.json

Data quality

Most of these data are generated automatically and are frequently updated. Quality checks on data are not normally performed. It is possible for incorrect values to appear. Refer to information at About Latest Weather Observations and please check the disclaimer before using these data.